createdAt,value
2023-02-25T00:01:36.438Z,12.17
2023-02-25T00:04:04.095Z,8.20
2023-02-25T00:06:31.705Z,8.60
2023-02-25T00:08:59.241Z,8.30
2023-02-25T00:11:27.492Z,6.87
2023-02-25T00:13:55.520Z,10.70
2023-02-25T00:16:24.248Z,8.60
2023-02-25T00:18:55.486Z,7.70
2023-02-25T00:21:23.021Z,10.27
2023-02-25T00:23:51.680Z,7.93
2023-02-25T00:26:19.134Z,8.83
2023-02-25T00:28:46.771Z,9.27
2023-02-25T00:31:15.713Z,8.80
2023-02-25T00:33:43.478Z,12.13
2023-02-25T00:36:12.543Z,12.80
2023-02-25T00:38:40.082Z,10.80
2023-02-25T00:41:11.865Z,11.83
2023-02-25T00:43:40.119Z,9.70
2023-02-25T00:46:07.553Z,9.60
2023-02-25T00:48:35.133Z,10.97
2023-02-25T00:51:09.892Z,9.93
2023-02-25T00:53:37.985Z,9.50
2023-02-25T00:56:06.728Z,9.47
2023-02-25T00:58:37.820Z,11.37
2023-02-25T01:01:06.788Z,8.63
2023-02-25T01:03:34.228Z,9.67
2023-02-25T01:06:02.994Z,12.13
2023-02-25T01:08:30.749Z,15.30
2023-02-25T01:10:58.222Z,13.27
2023-02-25T01:13:26.830Z,13.07
2023-02-25T01:15:54.318Z,10.03
2023-02-25T01:18:22.529Z,17.63
2023-02-25T01:20:49.983Z,14.63
2023-02-25T01:23:18.332Z,16.50
2023-02-25T01:25:47.019Z,14.60
2023-02-25T01:28:14.553Z,13.60
2023-02-25T01:30:42.053Z,15.13
2023-02-25T01:33:09.581Z,13.00
2023-02-25T01:35:37.218Z,20.87
2023-02-25T01:38:04.813Z,15.27
2023-02-25T01:40:32.374Z,14.90
2023-02-25T01:42:59.823Z,11.57
2023-02-25T01:45:30.221Z,16.93
2023-02-25T01:48:17.878Z,17.50
2023-02-25T01:50:52.716Z,14.70
2023-02-25T01:53:28.923Z,17.87
2023-02-25T01:55:58.838Z,19.83
2023-02-25T01:58:27.722Z,15.03
2023-02-25T02:00:56.003Z,17.30
2023-02-25T02:03:26.348Z,18.97
2023-02-25T02:05:56.747Z,25.07
2023-02-25T02:08:24.758Z,16.07
2023-02-25T02:10:52.182Z,17.23
2023-02-25T02:13:20.112Z,18.17
2023-02-25T02:15:59.626Z,18.27
2023-02-25T02:18:29.373Z,15.10
2023-02-25T02:21:26.240Z,16.53
2023-02-25T02:24:28.916Z,16.60
2023-02-25T02:27:02.394Z,15.60
2023-02-25T02:29:41.368Z,14.00
2023-02-25T02:32:15.798Z,14.10
2023-02-25T02:35:09.564Z,13.63
2023-02-25T02:37:43.359Z,14.30
2023-02-25T02:40:40.524Z,16.13
2023-02-25T02:43:13.448Z,15.10
2023-02-25T02:46:07.406Z,13.67
2023-02-25T02:48:54.519Z,17.10
2023-02-25T02:51:27.336Z,14.80
2023-02-25T02:53:56.336Z,18.13
2023-02-25T02:56:25.780Z,21.07
2023-02-25T02:59:05.888Z,19.10
2023-02-25T03:01:36.026Z,14.73
2023-02-25T03:04:06.102Z,15.70
2023-02-25T03:06:39.089Z,14.37
2023-02-25T03:09:12.510Z,15.57
2023-02-25T03:11:40.044Z,17.37
2023-02-25T03:14:08.776Z,17.90
2023-02-25T03:16:39.066Z,17.90
2023-02-25T03:19:32.870Z,16.40
2023-02-25T03:22:05.091Z,18.87
2023-02-25T03:24:39.357Z,20.03
2023-02-25T03:27:21.069Z,20.53
2023-02-25T03:29:51.166Z,17.63
2023-02-25T03:32:19.896Z,16.80
2023-02-25T03:34:52.638Z,16.17
2023-02-25T03:37:23.006Z,17.10
2023-02-25T03:39:52.910Z,18.53
2023-02-25T03:42:22.758Z,19.67
2023-02-25T03:44:53.098Z,16.83
2023-02-25T03:47:21.777Z,17.13
2023-02-25T03:50:01.281Z,18.33
2023-02-25T03:52:29.963Z,22.77
2023-02-25T03:55:01.697Z,19.67
2023-02-25T03:57:36.623Z,22.37
2023-02-25T04:00:15.627Z,23.83
2023-02-25T04:02:44.239Z,23.60
2023-02-25T04:05:12.199Z,24.97
2023-02-25T04:07:40.168Z,22.60
2023-02-25T04:10:09.032Z,19.33
2023-02-25T04:12:36.500Z,25.93
2023-02-25T04:15:06.129Z,22.20
2023-02-25T04:17:33.912Z,22.67
2023-02-25T04:20:01.377Z,29.27
2023-02-25T04:22:28.882Z,20.30
2023-02-25T04:24:56.347Z,22.70
2023-02-25T04:27:24.274Z,23.37
2023-02-25T04:29:51.896Z,21.70
2023-02-25T04:32:19.513Z,22.70
2023-02-25T04:34:47.049Z,18.40
2023-02-25T04:37:14.478Z,18.10
2023-02-25T04:39:41.914Z,21.50
2023-02-25T04:42:09.949Z,24.40
2023-02-25T04:44:37.408Z,22.23
2023-02-25T04:47:04.945Z,22.17
2023-02-25T04:49:32.407Z,21.90
2023-02-25T04:52:00.032Z,21.03
2023-02-25T04:54:27.545Z,19.80
2023-02-25T04:56:56.446Z,18.80
2023-02-25T04:59:26.807Z,30.10
2023-02-25T05:01:54.487Z,19.87
2023-02-25T05:04:21.953Z,24.50
2023-02-25T05:06:49.405Z,25.37
2023-02-25T05:09:16.858Z,25.57
2023-02-25T05:11:44.349Z,20.93
2023-02-25T05:14:11.811Z,23.13
2023-02-25T05:16:39.392Z,23.03
2023-02-25T05:19:06.865Z,23.27
2023-02-25T05:21:34.919Z,23.17
2023-02-25T05:24:02.404Z,22.90
2023-02-25T05:26:29.831Z,22.27
2023-02-25T05:28:58.146Z,23.87
2023-02-25T05:31:26.296Z,25.17
2023-02-25T05:33:54.077Z,30.70
2023-02-25T05:36:21.942Z,26.53
2023-02-25T05:38:50.338Z,25.03
2023-02-25T05:41:17.817Z,24.40
2023-02-25T05:43:46.083Z,26.17
2023-02-25T05:46:14.441Z,26.70
2023-02-25T05:48:42.996Z,24.97
2023-02-25T05:51:15.094Z,25.93
2023-02-25T05:53:44.777Z,29.23
2023-02-25T05:56:13.971Z,21.37
2023-02-25T05:58:41.736Z,26.30
2023-02-25T06:01:11.576Z,24.07
2023-02-25T06:03:39.273Z,24.23
2023-02-25T06:06:07.428Z,20.47
2023-02-25T06:08:35.081Z,21.40
2023-02-25T06:11:02.951Z,21.80
2023-02-25T06:13:30.450Z,18.60
2023-02-25T06:15:57.900Z,18.53
2023-02-25T06:18:25.349Z,21.80
2023-02-25T06:20:52.883Z,22.93
2023-02-25T06:23:20.342Z,22.37
2023-02-25T06:25:47.752Z,22.20
2023-02-25T06:28:15.629Z,25.93
2023-02-25T06:30:43.086Z,23.07
2023-02-25T06:33:10.615Z,22.80
2023-02-25T06:35:38.138Z,23.23
2023-02-25T06:38:05.642Z,20.67
2023-02-25T06:40:35.938Z,21.53
2023-02-25T06:43:03.416Z,22.60
2023-02-25T06:45:30.842Z,19.73
2023-02-25T06:47:58.771Z,20.43
2023-02-25T06:50:26.203Z,22.97
2023-02-25T06:52:53.746Z,23.53
2023-02-25T06:55:21.548Z,24.30
2023-02-25T06:57:48.969Z,23.63
2023-02-25T07:00:16.639Z,23.67
2023-02-25T07:02:44.112Z,22.23
2023-02-25T07:05:11.558Z,21.53
2023-02-25T07:07:39.145Z,22.63
2023-02-25T07:10:07.505Z,28.57
2023-02-25T07:12:35.047Z,22.50
2023-02-25T07:15:02.574Z,24.47
2023-02-25T07:17:30.281Z,28.60
2023-02-25T07:19:57.716Z,20.67
2023-02-25T07:22:25.312Z,21.30
2023-02-25T07:24:52.874Z,22.47
2023-02-25T07:27:20.525Z,25.07
2023-02-25T07:29:47.984Z,20.27
2023-02-25T07:32:15.704Z,22.53
2023-02-25T07:34:43.382Z,28.87
2023-02-25T07:37:13.041Z,21.43
2023-02-25T07:39:40.565Z,23.87
2023-02-25T07:42:08.070Z,23.33
2023-02-25T07:44:37.206Z,23.23
2023-02-25T07:47:04.721Z,16.93
2023-02-25T07:49:32.177Z,19.87
2023-02-25T07:52:00.876Z,18.87
2023-02-25T07:54:28.439Z,20.97
2023-02-25T07:56:55.920Z,17.50
2023-02-25T07:59:23.461Z,19.10
2023-02-25T08:01:50.935Z,19.97
2023-02-25T08:04:18.387Z,21.17
2023-02-25T08:06:47.225Z,22.93
2023-02-25T08:09:15.890Z,19.37
2023-02-25T08:11:44.220Z,17.17
2023-02-25T08:14:12.027Z,23.30
2023-02-25T08:16:39.515Z,24.73
2023-02-25T08:19:07.273Z,17.63
2023-02-25T08:21:34.924Z,19.03
2023-02-25T08:24:02.357Z,18.87
2023-02-25T08:26:29.962Z,20.23
2023-02-25T08:28:58.095Z,12.70
2023-02-25T08:31:26.164Z,19.00
2023-02-25T08:33:53.902Z,17.07
2023-02-25T08:36:26.773Z,25.47
2023-02-25T08:38:54.920Z,16.43
2023-02-25T08:41:23.212Z,14.40
2023-02-25T08:43:52.203Z,19.03
2023-02-25T08:46:21.295Z,16.43
2023-02-25T08:48:50.082Z,15.73
2023-02-25T08:51:17.811Z,12.37
2023-02-25T08:53:45.446Z,14.40
2023-02-25T08:56:14.382Z,17.87
2023-02-25T08:58:42.400Z,19.30
2023-02-25T09:01:13.829Z,16.67
2023-02-25T09:03:54.604Z,15.10
2023-02-25T09:06:22.967Z,14.80
2023-02-25T09:08:50.602Z,12.13
2023-02-25T09:11:18.900Z,21.23
2023-02-25T09:13:46.367Z,13.87
2023-02-25T09:16:17.590Z,14.10
2023-02-25T09:18:48.851Z,17.30
2023-02-25T09:21:16.428Z,15.47
2023-02-25T09:23:44.206Z,13.40
2023-02-25T09:26:12.281Z,13.83
2023-02-25T09:28:40.696Z,15.73
2023-02-25T09:31:08.315Z,16.30
2023-02-25T09:33:36.556Z,19.37
2023-02-25T09:36:05.577Z,15.93
2023-02-25T09:38:33.008Z,14.50
2023-02-25T09:41:00.581Z,15.67
2023-02-25T09:43:30.208Z,16.57
2023-02-25T09:46:06.184Z,14.93
2023-02-25T09:48:35.768Z,13.47
2023-02-25T09:51:08.857Z,14.87
2023-02-25T09:53:47.884Z,12.63
2023-02-25T09:56:17.245Z,14.70
2023-02-25T09:58:46.916Z,12.90
2023-02-25T10:01:18.409Z,17.63
2023-02-25T10:03:50.453Z,12.23
2023-02-25T10:06:25.432Z,11.17
2023-02-25T10:09:04.868Z,14.80
2023-02-25T10:11:41.714Z,15.10
2023-02-25T10:14:45.118Z,12.50
2023-02-25T10:17:36.524Z,12.73
2023-02-25T10:20:23.619Z,14.50
2023-02-25T10:23:04.306Z,13.23
2023-02-25T10:25:35.171Z,14.07
2023-02-25T10:28:05.721Z,13.97
2023-02-25T10:30:45.621Z,11.40
2023-02-25T10:33:17.551Z,13.20
2023-02-25T10:35:44.995Z,12.17
2023-02-25T10:38:15.657Z,10.03
2023-02-25T10:40:43.229Z,16.00
2023-02-25T10:43:24.083Z,12.57
2023-02-25T10:45:55.909Z,12.40
2023-02-25T10:48:24.381Z,12.83
2023-02-25T10:51:14.815Z,13.33
2023-02-25T10:54:01.714Z,8.70
2023-02-25T10:56:32.089Z,10.13
2023-02-25T10:59:04.813Z,10.30
2023-02-25T11:01:37.085Z,11.50
2023-02-25T11:04:06.481Z,13.20
2023-02-25T11:06:43.459Z,13.53
2023-02-25T11:09:31.178Z,14.87
2023-02-25T11:12:09.775Z,14.93
2023-02-25T11:14:38.876Z,11.13
2023-02-25T11:17:17.453Z,12.20
2023-02-25T11:19:47.651Z,15.67
2023-02-25T11:22:20.102Z,12.00
2023-02-25T11:24:55.584Z,9.80
2023-02-25T11:27:38.569Z,10.97
2023-02-25T11:30:08.596Z,13.27
2023-02-25T11:32:36.417Z,9.40
2023-02-25T11:35:18.136Z,8.03
2023-02-25T11:37:49.347Z,10.23
2023-02-25T11:40:28.022Z,7.80
2023-02-25T11:43:28.081Z,8.30
2023-02-25T11:46:00.693Z,11.83
2023-02-25T11:48:36.914Z,10.20
2023-02-25T11:51:17.694Z,12.23
2023-02-25T11:53:51.406Z,13.47
2023-02-25T11:56:31.278Z,9.63
2023-02-25T11:59:26.191Z,9.00
2023-02-25T12:02:13.579Z,8.10
2023-02-25T12:04:57.072Z,7.27
2023-02-25T12:08:05.188Z,9.50
2023-02-25T12:10:56.027Z,10.57
2023-02-25T12:13:46.905Z,9.40
2023-02-25T12:16:49.768Z,10.00
2023-02-25T12:19:46.440Z,13.27
2023-02-25T12:22:14.894Z,12.60
2023-02-25T12:25:02.602Z,6.93
2023-02-25T12:27:52.535Z,8.60
2023-02-25T12:30:56.397Z,7.43
2023-02-25T12:33:47.404Z,9.90
2023-02-25T12:36:33.684Z,8.87
2023-02-25T12:39:11.831Z,7.13
2023-02-25T12:41:54.783Z,7.67
2023-02-25T12:47:48.669Z,10.43
2023-02-25T12:50:39.270Z,8.20
2023-02-25T12:53:22.999Z,6.37
2023-02-25T12:55:57.775Z,10.23
2023-02-25T12:58:36.691Z,10.37
2023-02-25T13:01:30.429Z,7.17
2023-02-25T13:04:16.666Z,5.67
2023-02-25T13:07:14.531Z,20.27
2023-02-25T13:10:04.704Z,7.10
2023-02-25T13:12:54.708Z,31.97
2023-02-25T13:15:26.329Z,28.43
2023-02-25T13:18:01.513Z,36.03
2023-02-25T13:20:37.325Z,8.93
2023-02-25T13:23:30.843Z,8.93
2023-02-25T13:26:18.980Z,7.57
2023-02-25T13:28:55.654Z,7.93
2023-02-25T13:31:49.472Z,8.93
2023-02-25T13:37:41.168Z,7.30
2023-02-25T13:40:27.337Z,6.27
2023-02-25T13:43:12.222Z,8.13
2023-02-25T13:45:46.659Z,7.63
2023-02-25T13:48:24.077Z,12.83
2023-02-25T13:51:11.806Z,10.97
2023-02-25T13:53:53.560Z,12.80
2023-02-25T13:56:43.153Z,8.67
2023-02-25T14:02:47.444Z,5.90
2023-02-25T14:05:35.696Z,7.93
2023-02-25T14:08:15.620Z,55.40
2023-02-25T14:10:54.678Z,17.07
2023-02-25T14:13:39.730Z,5.33
2023-02-25T14:16:24.509Z,8.07
2023-02-25T14:19:12.304Z,37.57
2023-02-25T14:22:07.481Z,6.73
2023-02-25T14:24:51.564Z,13.13
2023-02-25T14:27:29.926Z,12.87
2023-02-25T14:30:11.155Z,8.50
2023-02-25T14:32:56.964Z,11.63
2023-02-25T14:35:53.797Z,7.90
2023-02-25T14:38:35.863Z,8.13
2023-02-25T14:41:13.022Z,6.27
2023-02-25T14:43:40.859Z,5.90
2023-02-25T14:46:13.441Z,11.20
2023-02-25T14:48:59.432Z,8.33
2023-02-25T14:51:44.055Z,8.70
2023-02-25T14:54:30.331Z,6.30
2023-02-25T14:57:09.718Z,9.50
2023-02-25T14:59:53.407Z,6.60
2023-02-25T15:02:40.588Z,8.17
2023-02-25T15:05:40.630Z,6.27
2023-02-25T15:08:26.706Z,7.77
2023-02-25T15:11:14.440Z,12.37
2023-02-25T15:14:05.126Z,9.67
2023-02-25T15:16:51.295Z,8.30
2023-02-25T15:19:41.509Z,6.80
2023-02-25T15:22:27.960Z,9.07
2023-02-25T15:25:15.548Z,5.97
2023-02-25T15:27:46.074Z,6.00
2023-02-25T15:30:18.283Z,5.07
2023-02-25T15:33:21.706Z,6.93
2023-02-25T15:35:54.804Z,7.90
2023-02-25T15:38:40.550Z,6.93
2023-02-25T15:41:26.534Z,5.03
2023-02-25T15:44:01.311Z,5.73
2023-02-25T15:46:57.676Z,9.20
2023-02-25T15:49:35.428Z,5.13
2023-02-25T15:52:04.906Z,4.80
2023-02-25T15:54:52.798Z,5.43
2023-02-25T15:57:38.125Z,6.63
2023-02-25T16:00:25.749Z,8.97
2023-02-25T16:02:58.394Z,6.47
2023-02-25T16:05:33.414Z,6.93
2023-02-25T16:08:15.484Z,7.63
2023-02-25T16:10:47.258Z,4.23
2023-02-25T16:13:16.750Z,30.87
2023-02-25T16:15:45.995Z,9.77
2023-02-25T16:18:27.753Z,7.63
2023-02-25T16:20:58.770Z,5.40
2023-02-25T16:23:28.634Z,6.93
2023-02-25T16:26:19.116Z,3.57
2023-02-25T16:28:54.981Z,5.33
2023-02-25T16:31:25.635Z,3.13
2023-02-25T16:34:13.522Z,4.40
2023-02-25T16:37:01.092Z,3.90
2023-02-25T16:39:29.237Z,6.30
2023-02-25T16:41:56.661Z,3.17
2023-02-25T16:44:27.488Z,3.30
2023-02-25T16:46:55.893Z,3.37
2023-02-25T16:49:28.134Z,8.13
2023-02-25T16:51:55.608Z,2.97
2023-02-25T16:54:25.543Z,4.03
2023-02-25T16:56:59.353Z,5.20
2023-02-25T16:59:27.204Z,4.50
2023-02-25T17:01:57.078Z,3.43
2023-02-25T17:04:35.618Z,3.97
2023-02-25T17:07:25.440Z,7.70
2023-02-25T17:09:54.823Z,2.53
2023-02-25T17:12:29.449Z,7.03
2023-02-25T17:14:59.016Z,3.50
2023-02-25T17:17:29.198Z,4.67
2023-02-25T17:19:57.505Z,6.60
2023-02-25T17:22:27.419Z,4.07
2023-02-25T17:24:56.396Z,3.47
2023-02-25T17:27:24.556Z,4.97
2023-02-25T17:29:52.250Z,3.70
2023-02-25T17:32:21.723Z,5.23
2023-02-25T17:34:50.794Z,6.87
2023-02-25T17:37:18.727Z,3.40
2023-02-25T17:39:46.364Z,5.57
2023-02-25T17:42:34.393Z,5.97
2023-02-25T17:45:02.877Z,5.80
2023-02-25T17:47:34.981Z,2.93
2023-02-25T17:50:12.692Z,7.33
2023-02-25T17:52:40.445Z,8.37
2023-02-25T17:55:20.853Z,7.17
2023-02-25T17:57:48.582Z,6.13
2023-02-25T18:00:24.215Z,3.20
2023-02-25T18:03:08.473Z,5.83
2023-02-25T18:05:44.497Z,6.17
2023-02-25T18:08:24.993Z,5.30
2023-02-25T18:11:03.925Z,4.73
2023-02-25T18:13:36.268Z,8.87
2023-02-25T18:16:33.315Z,4.73
2023-02-25T18:19:01.525Z,5.23
2023-02-25T18:21:29.429Z,7.17
2023-02-25T18:23:57.308Z,3.20
2023-02-25T18:26:26.349Z,9.13
2023-02-25T18:28:55.656Z,4.77
2023-02-25T18:31:23.302Z,6.30
2023-02-25T18:33:52.244Z,7.33
2023-02-25T18:36:25.919Z,4.50
2023-02-25T18:38:55.301Z,5.87
2023-02-25T18:41:22.739Z,5.40
2023-02-25T18:43:51.021Z,4.13
2023-02-25T18:46:18.762Z,8.47
2023-02-25T18:48:46.708Z,4.00
2023-02-25T18:51:14.480Z,8.37
2023-02-25T18:53:42.207Z,7.30
2023-02-25T18:56:13.781Z,3.47
2023-02-25T18:58:42.977Z,5.33
2023-02-25T19:01:16.521Z,4.83
2023-02-25T19:03:46.116Z,4.07
2023-02-25T19:06:13.562Z,6.73
2023-02-25T19:08:41.115Z,4.57
2023-02-25T19:11:08.599Z,2.53
2023-02-25T19:13:37.770Z,3.23
2023-02-25T19:16:05.550Z,6.47
2023-02-25T19:18:33.197Z,7.90
2023-02-25T19:21:00.861Z,5.20
2023-02-25T19:23:29.123Z,4.90
2023-02-25T19:25:58.035Z,8.03
2023-02-25T19:28:26.625Z,6.23
2023-02-25T19:30:54.190Z,10.00
2023-02-25T19:33:21.788Z,4.63
2023-02-25T19:35:49.309Z,5.43
2023-02-25T19:38:18.840Z,3.73
2023-02-25T19:40:46.970Z,7.33
2023-02-25T19:43:15.340Z,7.03
2023-02-25T19:45:43.142Z,3.60
2023-02-25T19:48:11.297Z,5.20
2023-02-25T19:50:40.938Z,3.53
2023-02-25T19:53:08.664Z,5.13
2023-02-25T19:55:36.189Z,6.90
2023-02-25T19:58:13.676Z,4.53
2023-02-25T20:00:46.042Z,7.77
2023-02-25T20:03:14.307Z,4.70
2023-02-25T20:05:42.033Z,7.40
2023-02-25T20:08:10.204Z,4.93
2023-02-25T20:10:37.638Z,9.80
2023-02-25T20:13:05.239Z,4.03
2023-02-25T20:15:32.723Z,6.57
2023-02-25T20:18:00.403Z,6.07
2023-02-25T20:20:27.876Z,6.63
2023-02-25T20:22:55.373Z,6.27
2023-02-25T20:25:23.042Z,5.33
2023-02-25T20:27:50.867Z,5.30
2023-02-25T20:30:18.843Z,10.03
2023-02-25T20:32:46.403Z,4.43
2023-02-25T20:35:15.916Z,6.60
2023-02-25T20:37:48.505Z,11.77
2023-02-25T20:40:16.070Z,9.30
2023-02-25T20:42:43.571Z,7.50
2023-02-25T20:45:14.564Z,6.90
2023-02-25T20:47:42.269Z,6.60
2023-02-25T20:50:10.225Z,10.23
2023-02-25T20:52:37.800Z,7.30
2023-02-25T20:55:06.725Z,6.07
2023-02-25T20:57:34.499Z,8.67
2023-02-25T21:00:01.980Z,5.73
2023-02-25T21:02:29.764Z,7.90
2023-02-25T21:04:57.208Z,8.60
2023-02-25T21:07:24.676Z,4.73
2023-02-25T21:09:52.083Z,8.83
2023-02-25T21:12:19.618Z,7.03
2023-02-25T21:14:47.084Z,6.53
2023-02-25T21:17:15.664Z,7.60
2023-02-25T21:19:43.078Z,6.63
2023-02-25T21:22:10.652Z,5.63
2023-02-25T21:24:38.081Z,8.20
2023-02-25T21:27:06.086Z,9.07
2023-02-25T21:29:33.545Z,6.43
2023-02-25T21:32:01.064Z,7.53
2023-02-25T21:34:28.588Z,8.63
2023-02-25T21:36:57.675Z,6.73
2023-02-25T21:39:25.956Z,9.87
2023-02-25T21:41:53.657Z,7.33
2023-02-25T21:44:21.134Z,11.83
2023-02-25T21:46:48.831Z,5.97
2023-02-25T21:49:16.267Z,9.60
2023-02-25T21:51:44.000Z,9.83
2023-02-25T21:54:12.217Z,5.87
2023-02-25T21:56:41.092Z,12.20
2023-02-25T21:59:08.625Z,7.23
2023-02-25T22:01:41.241Z,8.33
2023-02-25T22:04:10.195Z,11.63
2023-02-25T22:06:37.819Z,6.37
2023-02-25T22:09:06.944Z,9.20
2023-02-25T22:11:35.257Z,11.73
2023-02-25T22:14:03.539Z,12.13
2023-02-25T22:16:30.995Z,10.03
2023-02-25T22:18:58.876Z,7.37
2023-02-25T22:21:27.223Z,9.13
2023-02-25T22:23:56.241Z,6.23
2023-02-25T22:26:25.598Z,6.77
2023-02-25T22:28:57.592Z,6.77
2023-02-25T22:31:25.652Z,6.60
2023-02-25T22:33:53.144Z,9.07
2023-02-25T22:36:20.770Z,9.70
2023-02-25T22:38:49.378Z,6.67
2023-02-25T22:41:21.088Z,5.63
2023-02-25T22:43:48.709Z,8.20
2023-02-25T22:46:24.012Z,7.17
2023-02-25T22:48:51.741Z,6.67
2023-02-25T22:51:21.229Z,4.87
2023-02-25T22:53:48.787Z,5.47
2023-02-25T22:56:16.561Z,3.77
2023-02-25T22:58:44.257Z,3.90
2023-02-25T23:01:12.531Z,13.97
2023-02-25T23:03:40.272Z,5.80
2023-02-25T23:06:08.226Z,8.03
2023-02-25T23:08:36.293Z,5.10
2023-02-25T23:11:23.522Z,7.37
2023-02-25T23:13:52.685Z,6.50
2023-02-25T23:16:21.775Z,6.27
2023-02-25T23:18:49.340Z,3.33
2023-02-25T23:21:20.029Z,9.17
2023-02-25T23:23:48.630Z,5.03
2023-02-25T23:26:17.491Z,4.13
2023-02-25T23:28:45.130Z,7.07
2023-02-25T23:31:22.260Z,7.50
2023-02-25T23:33:49.813Z,5.60
2023-02-25T23:36:17.261Z,5.50
2023-02-25T23:38:44.726Z,6.57
2023-02-25T23:41:12.195Z,5.93
2023-02-25T23:43:39.762Z,4.83
2023-02-25T23:46:07.529Z,5.43
2023-02-25T23:48:35.055Z,6.63
2023-02-25T23:51:06.574Z,7.93
2023-02-25T23:53:34.382Z,6.77
2023-02-25T23:56:08.726Z,7.00
2023-02-25T23:58:36.768Z,8.73
